createdAt,value
2018-11-29T00:01:55.797Z,21.77
2018-11-29T00:06:52.516Z,20.97
2018-11-29T00:11:49.218Z,21.87
2018-11-29T00:16:45.920Z,21.33
2018-11-29T00:21:42.662Z,21.53
2018-11-29T00:26:39.352Z,23.23
2018-11-29T00:31:36.087Z,22.87
2018-11-29T00:36:32.765Z,23.47
2018-11-29T00:41:29.390Z,21.77
2018-11-29T00:46:26.109Z,23.57
2018-11-29T00:51:22.806Z,22.23
2018-11-29T00:56:19.558Z,22.37
2018-11-29T01:01:16.262Z,23.47
2018-11-29T01:06:12.948Z,23.60
2018-11-29T01:11:09.667Z,23.27
2018-11-29T01:16:06.418Z,23.43
2018-11-29T01:21:03.118Z,23.77
2018-11-29T01:25:59.824Z,22.83
2018-11-29T01:30:56.768Z,22.77
2018-11-29T01:35:53.401Z,23.00
2018-11-29T01:40:50.078Z,21.93
2018-11-29T01:45:46.744Z,22.73
2018-11-29T01:50:43.460Z,23.73
2018-11-29T01:55:40.164Z,22.73
2018-11-29T02:00:36.924Z,22.10
2018-11-29T02:05:33.633Z,21.63
2018-11-29T02:10:36.164Z,23.00
2018-11-29T02:15:32.919Z,23.40
2018-11-29T02:20:29.631Z,23.40
2018-11-29T02:25:26.301Z,22.30
2018-11-29T02:30:23.041Z,22.60
2018-11-29T02:35:19.771Z,23.27
2018-11-29T02:40:17.017Z,24.63
2018-11-29T02:45:15.323Z,23.73
2018-11-29T02:50:12.095Z,22.97
2018-11-29T02:55:09.356Z,22.57
2018-11-29T03:00:07.722Z,23.63
2018-11-29T03:05:04.537Z,23.90
2018-11-29T03:10:01.598Z,23.60
2018-11-29T03:14:58.215Z,23.63
2018-11-29T03:19:54.858Z,22.33
2018-11-29T03:24:51.569Z,23.67
2018-11-29T03:29:48.252Z,22.13
2018-11-29T03:34:44.996Z,21.73
2018-11-29T03:39:41.742Z,22.20
2018-11-29T03:44:38.507Z,22.03
2018-11-29T03:49:35.217Z,21.37
2018-11-29T03:54:31.998Z,22.07
2018-11-29T03:59:28.690Z,21.20
2018-11-29T04:04:25.388Z,21.30
2018-11-29T04:09:22.095Z,23.13
2018-11-29T04:14:18.767Z,21.63
2018-11-29T04:19:15.480Z,22.90
2018-11-29T04:24:12.422Z,23.33
2018-11-29T04:29:09.096Z,21.57
2018-11-29T04:34:05.848Z,22.60
2018-11-29T04:39:02.747Z,21.87
2018-11-29T04:43:59.466Z,22.00
2018-11-29T04:48:56.183Z,23.07
2018-11-29T04:53:52.952Z,22.43
2018-11-29T04:58:49.657Z,21.90
2018-11-29T05:03:46.326Z,21.17
2018-11-29T05:08:43.286Z,21.83
2018-11-29T05:13:39.970Z,21.70
2018-11-29T05:18:36.669Z,22.63
2018-11-29T05:23:33.438Z,21.13
2018-11-29T05:28:30.180Z,20.23
2018-11-29T05:33:27.213Z,20.23
2018-11-29T05:38:23.944Z,20.97
2018-11-29T05:43:20.598Z,22.00
2018-11-29T05:48:17.291Z,21.23
2018-11-29T05:53:14.050Z,19.73
2018-11-29T05:58:10.969Z,21.03
2018-11-29T06:03:07.823Z,19.57
2018-11-29T06:08:04.741Z,18.13
2018-11-29T06:13:01.501Z,18.03
2018-11-29T06:17:58.244Z,17.53
2018-11-29T06:22:54.953Z,18.17
2018-11-29T06:27:51.883Z,16.87
2018-11-29T06:32:49.416Z,16.87
2018-11-29T06:37:46.332Z,16.07
2018-11-29T06:42:43.250Z,16.57
2018-11-29T06:47:39.951Z,16.50
2018-11-29T06:52:36.706Z,15.80
2018-11-29T06:57:33.388Z,16.33
2018-11-29T07:02:30.080Z,16.37
2018-11-29T07:07:26.954Z,16.17
2018-11-29T07:12:23.648Z,14.93
2018-11-29T07:17:20.430Z,15.13
2018-11-29T07:22:17.045Z,14.23
2018-11-29T07:27:13.832Z,14.73
2018-11-29T07:32:11.741Z,14.53
2018-11-29T07:37:08.499Z,13.83
2018-11-29T07:42:05.550Z,15.37
2018-11-29T07:47:02.254Z,13.83
2018-11-29T07:51:58.982Z,15.03
2018-11-29T07:56:55.698Z,14.13
2018-11-29T08:01:52.582Z,13.93
2018-11-29T08:06:49.346Z,15.03
2018-11-29T08:11:46.153Z,14.70
2018-11-29T08:16:42.829Z,15.57
2018-11-29T08:21:39.677Z,15.30
2018-11-29T08:26:36.431Z,15.00
2018-11-29T08:31:33.811Z,15.67
2018-11-29T08:36:30.592Z,16.47
2018-11-29T08:41:27.318Z,17.33
2018-11-29T08:46:24.175Z,16.07
2018-11-29T08:51:20.895Z,16.83
2018-11-29T08:56:17.651Z,15.87
2018-11-29T09:01:14.356Z,16.20
2018-11-29T09:06:11.296Z,16.20
2018-11-29T09:11:08.028Z,16.80
2018-11-29T09:16:04.912Z,15.73
2018-11-29T09:21:01.671Z,15.23
2018-11-29T09:25:58.298Z,15.23
2018-11-29T09:30:55.005Z,15.37
2018-11-29T09:35:51.735Z,15.17
2018-11-29T09:40:48.442Z,15.43
2018-11-29T09:45:45.153Z,14.77
2018-11-29T09:50:41.882Z,16.67
2018-11-29T09:55:38.658Z,16.10
2018-11-29T10:00:35.436Z,16.77
2018-11-29T10:05:32.152Z,15.53
2018-11-29T10:10:28.816Z,14.93
2018-11-29T10:15:25.586Z,15.93
2018-11-29T10:20:22.318Z,15.63
2018-11-29T10:25:19.019Z,15.37
2018-11-29T10:30:16.625Z,15.47
2018-11-29T10:35:13.395Z,16.13
2018-11-29T10:40:10.296Z,16.07
2018-11-29T10:45:09.166Z,15.50
2018-11-29T10:50:08.091Z,15.30
2018-11-29T10:55:08.878Z,15.17
2018-11-29T11:00:08.348Z,15.80
2018-11-29T11:05:05.156Z,16.57
2018-11-29T11:10:01.916Z,17.40
2018-11-29T11:14:58.662Z,16.57
2018-11-29T11:19:55.395Z,15.37
2018-11-29T11:24:53.150Z,15.13
2018-11-29T11:29:49.869Z,15.03
2018-11-29T11:34:46.578Z,14.57
2018-11-29T11:39:43.260Z,15.37
2018-11-29T11:44:39.962Z,14.03
2018-11-29T11:49:36.617Z,13.43
2018-11-29T11:54:33.324Z,14.43
2018-11-29T11:59:30.125Z,14.20
2018-11-29T12:04:27.200Z,12.70
2018-11-29T12:09:23.885Z,12.67
2018-11-29T12:14:20.666Z,12.33
2018-11-29T12:19:17.388Z,12.23
2018-11-29T12:24:14.172Z,12.07
2018-11-29T12:29:10.824Z,10.20
2018-11-29T12:34:07.586Z,11.27
2018-11-29T12:39:06.869Z,10.67
2018-11-29T12:44:03.668Z,10.87
2018-11-29T12:49:00.387Z,11.50
2018-11-29T12:53:57.165Z,10.50
2018-11-29T12:58:58.762Z,10.40
2018-11-29T13:03:58.255Z,10.60
2018-11-29T13:08:59.556Z,10.53
2018-11-29T13:13:56.332Z,9.53
2018-11-29T13:18:53.262Z,9.73
2018-11-29T13:23:49.932Z,9.80
2018-11-29T13:28:46.741Z,9.90
2018-11-29T13:33:43.558Z,9.80
2018-11-29T13:38:40.243Z,9.97
2018-11-29T13:43:37.071Z,9.87
2018-11-29T13:48:33.791Z,9.97
2018-11-29T13:53:30.498Z,9.80
2018-11-29T13:58:27.416Z,9.67
2018-11-29T14:03:24.106Z,8.80
2018-11-29T14:08:20.852Z,8.27
2018-11-29T14:13:17.584Z,8.57
2018-11-29T14:18:14.290Z,9.40
2018-11-29T14:23:10.955Z,9.13
2018-11-29T14:28:07.667Z,9.27
2018-11-29T14:33:05.107Z,8.40
2018-11-29T14:38:01.794Z,9.27
2018-11-29T14:42:58.664Z,7.80
2018-11-29T14:47:55.469Z,8.40
2018-11-29T14:52:52.177Z,8.30
2018-11-29T14:57:48.907Z,7.73
2018-11-29T15:02:45.674Z,7.50
2018-11-29T15:07:42.616Z,7.70
2018-11-29T15:12:39.303Z,7.57
2018-11-29T15:17:36.041Z,7.67
2018-11-29T15:22:32.652Z,6.80
2018-11-29T15:27:29.456Z,8.63
2018-11-29T15:32:26.231Z,7.90
2018-11-29T15:37:22.927Z,8.33
2018-11-29T15:42:19.630Z,7.90
2018-11-29T15:47:16.382Z,8.27
2018-11-29T15:52:13.085Z,5.63
2018-11-29T15:57:09.730Z,6.53
2018-11-29T16:02:06.452Z,6.67
2018-11-29T16:07:03.176Z,6.87
2018-11-29T16:11:59.891Z,6.20
2018-11-29T16:16:56.619Z,6.47
2018-11-29T16:21:56.021Z,5.83
2018-11-29T16:26:52.730Z,6.67
2018-11-29T16:31:49.472Z,6.60
2018-11-29T16:36:46.138Z,7.27
2018-11-29T16:41:42.820Z,6.97
2018-11-29T16:46:39.468Z,12.60
2018-11-29T16:51:36.296Z,8.30
2018-11-29T16:56:32.995Z,7.33
2018-11-29T17:01:29.646Z,7.77
2018-11-29T17:06:26.453Z,8.77
2018-11-29T17:11:23.244Z,6.93
2018-11-29T17:16:19.981Z,7.50
2018-11-29T17:21:17.772Z,8.47
2018-11-29T17:26:14.521Z,8.80
2018-11-29T17:31:11.276Z,8.77
2018-11-29T17:36:08.028Z,8.43
2018-11-29T17:41:05.810Z,8.33
2018-11-29T17:46:02.531Z,9.20
2018-11-29T17:50:59.236Z,9.20
2018-11-29T17:55:55.967Z,9.17
2018-11-29T18:00:52.755Z,8.50
2018-11-29T18:05:49.517Z,9.33
2018-11-29T18:10:47.112Z,9.00
2018-11-29T18:15:43.749Z,9.43
2018-11-29T18:20:40.470Z,8.90
2018-11-29T18:25:37.219Z,10.23
2018-11-29T18:30:33.940Z,10.07
2018-11-29T18:35:30.657Z,9.97
2018-11-29T18:40:28.391Z,10.63
2018-11-29T18:45:25.085Z,9.77
2018-11-29T18:50:22.307Z,13.60
2018-11-29T18:55:19.487Z,10.30
2018-11-29T19:00:32.654Z,11.07
2018-11-29T19:05:29.409Z,8.97
2018-11-29T19:10:26.175Z,9.43
2018-11-29T19:15:22.935Z,10.40
2018-11-29T19:20:19.650Z,10.73
2018-11-29T19:25:16.839Z,9.43
2018-11-29T19:30:16.165Z,9.87
2018-11-29T19:35:12.926Z,10.30
2018-11-29T19:40:11.308Z,9.57
2018-11-29T19:45:09.690Z,10.67
2018-11-29T19:50:08.355Z,10.37
2018-11-29T19:55:06.530Z,10.67
2018-11-29T20:00:03.791Z,15.13
2018-11-29T20:05:01.199Z,11.10
2018-11-29T20:09:58.983Z,11.73
2018-11-29T20:14:56.533Z,12.03
2018-11-29T20:19:53.210Z,12.13
2018-11-29T20:24:49.916Z,11.60
2018-11-29T20:29:46.627Z,11.87
2018-11-29T20:34:43.374Z,11.77
2018-11-29T20:39:40.056Z,11.50
2018-11-29T20:44:36.781Z,11.43
2018-11-29T20:49:34.630Z,12.30
2018-11-29T20:54:31.352Z,11.47
2018-11-29T20:59:28.391Z,13.10
2018-11-29T21:04:25.140Z,13.03
2018-11-29T21:09:21.855Z,11.73
2018-11-29T21:14:18.572Z,12.57
2018-11-29T21:19:15.241Z,12.40
2018-11-29T21:24:12.438Z,12.60
2018-11-29T21:29:09.075Z,12.83
2018-11-29T21:34:05.991Z,12.00
2018-11-29T21:39:02.926Z,12.57
2018-11-29T21:43:59.646Z,12.67
2018-11-29T21:48:56.368Z,12.37
2018-11-29T21:53:53.210Z,12.70
2018-11-29T21:58:49.841Z,13.33
2018-11-29T22:03:46.559Z,12.57
2018-11-29T22:08:43.367Z,11.60
2018-11-29T22:13:40.159Z,12.27
2018-11-29T22:18:36.936Z,12.73
2018-11-29T22:23:34.294Z,12.30
2018-11-29T22:28:31.039Z,12.23
2018-11-29T22:33:27.738Z,13.53
2018-11-29T22:38:24.404Z,13.77
2018-11-29T22:43:21.114Z,13.83
2018-11-29T22:48:17.824Z,15.10
2018-11-29T22:53:14.514Z,13.07
2018-11-29T22:58:11.286Z,14.67
2018-11-29T23:03:08.034Z,14.33
2018-11-29T23:08:04.728Z,13.87
2018-11-29T23:13:01.478Z,13.50
2018-11-29T23:17:58.226Z,14.10
2018-11-29T23:22:54.891Z,12.73
2018-11-29T23:27:51.566Z,13.63
2018-11-29T23:32:48.295Z,13.83
2018-11-29T23:37:45.006Z,14.03
2018-11-29T23:42:41.720Z,14.20
2018-11-29T23:47:38.469Z,14.13
2018-11-29T23:52:35.240Z,13.87
2018-11-29T23:57:31.936Z,12.90
